KTPA Airport Information

Runway Information
Runway 10 Length 6999 ft width 150 ft
Elevation 14 ft Threshold 0 ft Heading 92
Runway 28 Length 6999 ft Width 150 ft
Elevation 26 ft Threshold 0 ft Heading 272
Runway 19L Length 8300 ft width 150 ft
Elevation 26 ft Threshold 0 ft Heading 182
Runway 01R Length 8300 ft Width 150 ft
Elevation 18 ft Threshold 0 ft Heading 2
Runway 19R Length 11002 ft width 150 ft
Elevation 21 ft Threshold 0 ft Heading 182
Runway 01L Length 11002 ft Width 150 ft
Elevation 11 ft Threshold 0 ft Heading 2
Airport Frequencies
Type A/D Name APP/DEP Frequency 118.15 MHZ
Type ATIS Name ATIS Frequency 126.45 MHZ
Type CLD Name CLNC DEL Frequency 133.6 MHZ
Type GND Name GND Frequency 121.7 MHZ
Type TWR Name TWR Frequency 119.5 MHZ
Type UNIC Name UNICOM Frequency 122.95 MHZ
Airport Navaids
Type NDB Name Cosme Frequency 368 KHZ
Airport Weather Information & NOTAM
ADDS - METARS form results

(1137 UTC 21 April 2018)
 
METAR text: KTPA 211053Z 03008KT 9SM SCT025 BKN070 OVC230 20/17 A3013 RMK AO2 SLP202 T02000172
Conditions at: KTPA (TAMPA , FL, US) observed 1053 UTC 21 April 2018
Temperature: 20.0°C (68°F)
Dewpoint: 17.2°C (63°F) [RH = 84%]
Pressure (altimeter): 30.13 inches Hg (1020.4 mb)
[Sea-level pressure: 1020.2 mb]
Winds: from the NNE (30 degrees) at 9 MPH (8 knots; 4.2 m/s)
Visibility: 9 miles (14 km)
Ceiling: 7000 feet AGL
Clouds: scattered clouds at 2500 feet AGL
broken clouds at 7000 feet AGL
overcast cloud deck at 23000 feet AGL
Weather: no significant weather observed at this time

METAR text: KTPA 211046Z 04007KT 9SM SCT025 BKN070 OVC230 20/17 A3013 RMK AO2 T02000172
Conditions at: KTPA (TAMPA , FL, US) observed 1046 UTC 21 April 2018
Temperature: 20.0°C (68°F)
Dewpoint: 17.2°C (63°F) [RH = 84%]
Pressure (altimeter): 30.13 inches Hg (1020.4 mb)
Winds: from the NE (40 degrees) at 8 MPH (7 knots; 3.6 m/s)
Visibility: 9 miles (14 km)
Ceiling: 7000 feet AGL
Clouds: scattered clouds at 2500 feet AGL
broken clouds at 7000 feet AGL
overcast cloud deck at 23000 feet AGL
Weather: no significant weather observed at this time